createdAt,value
2023-01-30T00:01:16.237Z,-4.45
2023-01-30T00:03:44.031Z,-4.45
2023-01-30T00:06:12.344Z,-4.44
2023-01-30T00:08:41.375Z,-4.46
2023-01-30T00:11:11.192Z,-4.46
2023-01-30T00:13:40.618Z,-4.46
2023-01-30T00:16:09.613Z,-4.43
2023-01-30T00:18:38.194Z,-4.44
2023-01-30T00:21:07.592Z,-4.49
2023-01-30T00:23:38.373Z,-4.50
2023-01-30T00:26:08.641Z,-4.57
2023-01-30T00:28:36.783Z,-4.60
2023-01-30T00:31:04.602Z,-4.57
2023-01-30T00:33:32.483Z,-4.56
2023-01-30T00:36:02.649Z,-4.55
2023-01-30T00:38:33.175Z,-4.60
2023-01-30T00:41:00.887Z,-4.63
2023-01-30T00:43:47.510Z,-4.69
2023-01-30T00:46:37.710Z,-4.72
2023-01-30T00:49:05.403Z,-4.79
2023-01-30T00:51:33.131Z,-4.88
2023-01-30T00:54:00.951Z,-4.93
2023-01-30T00:56:28.626Z,-4.94
2023-01-30T00:58:57.656Z,-4.93
2023-01-30T01:01:25.317Z,-4.94
2023-01-30T01:03:53.045Z,-4.97
2023-01-30T01:06:20.707Z,-4.96
2023-01-30T01:08:48.400Z,-4.99
2023-01-30T01:11:24.236Z,-5.05
2023-01-30T01:13:55.637Z,-5.07
2023-01-30T01:16:25.688Z,-5.11
2023-01-30T01:18:53.845Z,-5.18
2023-01-30T01:21:22.813Z,-5.24
2023-01-30T01:23:52.396Z,-5.36
2023-01-30T01:26:20.276Z,-5.45
2023-01-30T01:28:48.477Z,-5.51
2023-01-30T01:31:17.766Z,-5.61
2023-01-30T01:33:46.937Z,-5.68
2023-01-30T01:36:24.443Z,-5.80
2023-01-30T01:39:03.461Z,-5.90
2023-01-30T01:41:30.598Z,-6.01
2023-01-30T01:44:02.727Z,-6.11
2023-01-30T01:46:34.257Z,-6.19
2023-01-30T01:49:07.012Z,-6.30
2023-01-30T01:51:39.698Z,-6.34
2023-01-30T01:54:12.880Z,-6.45
2023-01-30T01:56:47.261Z,-6.48
2023-01-30T01:59:20.526Z,-6.58
2023-01-30T02:01:48.911Z,-6.67
2023-01-30T02:04:38.849Z,-6.76
2023-01-30T02:07:07.046Z,-6.80
2023-01-30T02:09:34.761Z,-6.91
2023-01-30T02:12:05.315Z,-6.89
2023-01-30T02:14:34.465Z,-6.81
2023-01-30T02:17:02.155Z,-6.78
2023-01-30T02:19:36.187Z,-6.74
2023-01-30T02:22:32.855Z,-6.79
2023-01-30T02:25:30.764Z,-6.80
2023-01-30T02:28:29.895Z,-6.87
2023-01-30T02:31:21.181Z,-6.89
2023-01-30T02:33:58.328Z,-6.91
2023-01-30T02:36:36.138Z,-6.99
2023-01-30T02:39:09.787Z,-7.02
2023-01-30T02:41:47.981Z,-6.99
2023-01-30T02:44:24.786Z,-7.06
2023-01-30T02:46:57.585Z,-7.05
2023-01-30T02:49:30.265Z,-7.05
2023-01-30T02:52:01.204Z,-7.02
2023-01-30T02:54:29.183Z,-6.99
2023-01-30T02:57:00.379Z,-7.00
2023-01-30T02:59:32.190Z,-7.03
2023-01-30T03:02:28.954Z,-7.04
2023-01-30T03:05:12.678Z,-7.05
2023-01-30T03:07:47.669Z,-7.04
2023-01-30T03:10:25.475Z,-6.94
2023-01-30T03:13:00.432Z,-7.01
2023-01-30T03:15:35.270Z,-7.03
2023-01-30T03:18:05.723Z,-7.02
2023-01-30T03:20:38.177Z,-7.05
2023-01-30T03:23:05.887Z,-6.98
2023-01-30T03:25:34.760Z,-6.86
2023-01-30T03:28:04.687Z,-6.70
2023-01-30T03:30:32.413Z,-6.54
2023-01-30T03:33:00.077Z,-6.49
2023-01-30T03:35:30.586Z,-6.46
2023-01-30T03:37:59.637Z,-6.46
2023-01-30T03:40:27.717Z,-6.39
2023-01-30T03:42:55.432Z,-6.32
2023-01-30T03:45:23.170Z,-6.01
2023-01-30T03:47:50.794Z,-5.87
2023-01-30T03:50:18.962Z,-5.78
2023-01-30T03:52:48.005Z,-5.62
2023-01-30T03:55:15.982Z,-5.47
2023-01-30T03:57:43.820Z,-5.39
2023-01-30T04:00:12.539Z,-5.31
2023-01-30T04:02:40.265Z,-5.27
2023-01-30T04:05:08.544Z,-5.17
2023-01-30T04:07:36.331Z,-5.12
2023-01-30T04:10:06.133Z,-5.02
2023-01-30T04:12:33.824Z,-4.96
2023-01-30T04:15:01.553Z,-4.91
2023-01-30T04:17:29.239Z,-4.72
2023-01-30T04:19:56.934Z,-4.64
2023-01-30T04:22:24.617Z,-4.41
2023-01-30T04:24:52.292Z,-4.26
2023-01-30T04:27:21.332Z,-4.11
2023-01-30T04:29:49.007Z,-3.98
2023-01-30T04:32:16.715Z,-3.90
2023-01-30T04:34:45.140Z,-3.75
2023-01-30T04:37:12.886Z,-3.70
2023-01-30T04:39:40.679Z,-3.67
2023-01-30T04:42:08.375Z,-3.65
2023-01-30T04:44:37.415Z,-3.62
2023-01-30T04:47:05.293Z,-3.51
2023-01-30T04:49:32.987Z,-3.53
2023-01-30T04:52:00.661Z,-3.53
2023-01-30T04:54:28.304Z,-3.53
2023-01-30T04:56:55.962Z,-3.52
2023-01-30T04:59:23.655Z,-3.58
2023-01-30T05:01:52.780Z,-3.59
2023-01-30T05:04:20.521Z,-3.51
2023-01-30T05:06:48.229Z,-3.57
2023-01-30T05:09:16.103Z,-3.60
2023-01-30T05:11:43.903Z,-3.66
2023-01-30T05:14:11.582Z,-3.67
2023-01-30T05:16:39.279Z,-3.75
2023-01-30T05:19:08.299Z,-3.73
2023-01-30T05:21:35.927Z,-3.67
2023-01-30T05:24:03.572Z,-3.66
2023-01-30T05:26:32.245Z,-3.66
2023-01-30T05:28:59.958Z,-3.71
2023-01-30T05:31:27.661Z,-3.57
2023-01-30T05:33:55.447Z,-3.60
2023-01-30T05:36:24.851Z,-3.60
2023-01-30T05:38:52.643Z,-3.51
2023-01-30T05:41:23.385Z,-3.32
2023-01-30T05:43:51.564Z,-3.26
2023-01-30T05:46:19.706Z,-3.38
2023-01-30T05:48:47.622Z,-3.44
2023-01-30T05:51:20.110Z,-3.43
2023-01-30T05:53:49.194Z,-3.49
2023-01-30T05:56:17.461Z,-3.52
2023-01-30T05:58:50.596Z,-3.55
2023-01-30T06:01:18.275Z,-3.61
2023-01-30T06:03:46.126Z,-3.68
2023-01-30T06:06:14.610Z,-3.80
2023-01-30T06:08:42.598Z,-3.95
2023-01-30T06:11:13.480Z,-3.96
2023-01-30T06:13:41.760Z,-3.98
2023-01-30T06:16:11.985Z,-3.96
2023-01-30T06:18:40.237Z,-3.91
2023-01-30T06:21:08.740Z,-3.92
2023-01-30T06:23:36.668Z,-3.94
2023-01-30T06:26:06.261Z,-3.96
2023-01-30T06:28:37.623Z,-3.94
2023-01-30T06:31:07.603Z,-3.88
2023-01-30T06:33:35.764Z,-3.94
2023-01-30T06:36:03.560Z,-3.90
2023-01-30T06:38:34.434Z,-3.93
2023-01-30T06:41:02.639Z,-3.91
2023-01-30T06:43:30.349Z,-3.93
2023-01-30T06:46:01.208Z,-3.90
2023-01-30T06:48:28.972Z,-3.88
2023-01-30T06:50:56.672Z,-3.89
2023-01-30T06:53:30.356Z,-3.96
2023-01-30T06:55:58.531Z,-3.98
2023-01-30T06:58:26.688Z,-4.09
2023-01-30T07:00:54.643Z,-4.03
2023-01-30T07:03:24.337Z,-3.94
2023-01-30T07:05:52.175Z,-3.78
2023-01-30T07:08:19.883Z,-3.46
2023-01-30T07:10:47.539Z,-3.32
2023-01-30T07:13:15.604Z,-3.11
2023-01-30T07:15:46.009Z,-2.97
2023-01-30T07:18:14.135Z,-2.76
2023-01-30T07:20:43.354Z,-2.60
2023-01-30T07:23:11.020Z,-2.45
2023-01-30T07:25:38.644Z,-2.29
2023-01-30T07:28:06.463Z,-2.19
2023-01-30T07:30:36.164Z,-2.04
2023-01-30T07:33:06.182Z,-1.95
2023-01-30T07:35:35.676Z,-1.88
2023-01-30T07:38:05.098Z,-1.77
2023-01-30T07:40:33.136Z,-1.71
2023-01-30T07:43:02.859Z,-1.61
2023-01-30T07:45:36.036Z,-1.54
2023-01-30T07:48:03.837Z,-1.35
2023-01-30T07:50:31.524Z,-1.24
2023-01-30T07:52:59.193Z,-1.16
2023-01-30T07:55:28.481Z,-1.03
2023-01-30T07:57:56.175Z,-0.96
2023-01-30T08:00:24.164Z,-0.89
2023-01-30T08:02:51.815Z,-0.87
2023-01-30T08:05:19.953Z,-0.87
2023-01-30T08:07:48.348Z,-0.80
2023-01-30T08:10:17.131Z,-0.72
2023-01-30T08:12:46.533Z,-0.67
2023-01-30T08:15:15.919Z,-0.66
2023-01-30T08:17:43.562Z,-0.66
2023-01-30T08:20:16.909Z,-0.55
2023-01-30T08:22:45.136Z,-0.52
2023-01-30T08:25:12.796Z,-0.39
2023-01-30T08:27:40.442Z,-0.26
2023-01-30T08:30:11.127Z,-0.18
2023-01-30T08:32:38.819Z,0.03
2023-01-30T08:35:07.385Z,0.10
2023-01-30T08:37:35.049Z,0.15
2023-01-30T08:40:02.889Z,0.16
2023-01-30T08:42:30.581Z,0.02
2023-01-30T08:44:58.292Z,-0.03
2023-01-30T08:47:27.570Z,-0.06
2023-01-30T08:49:55.374Z,0.00
2023-01-30T08:52:23.102Z,-0.01
2023-01-30T08:54:50.798Z,0.06
2023-01-30T08:57:20.238Z,0.24
2023-01-30T08:59:47.983Z,0.44
2023-01-30T09:02:15.675Z,0.63
2023-01-30T09:04:44.784Z,0.75
2023-01-30T09:07:12.497Z,0.77
2023-01-30T09:09:40.188Z,0.79
2023-01-30T09:12:07.986Z,0.79
2023-01-30T09:14:35.776Z,0.90
2023-01-30T09:17:06.188Z,1.02
2023-01-30T09:19:37.554Z,1.18
2023-01-30T09:22:07.370Z,1.00
2023-01-30T09:24:35.481Z,0.88
2023-01-30T09:27:03.383Z,0.85
2023-01-30T09:29:31.369Z,0.92
2023-01-30T09:31:59.158Z,1.00
2023-01-30T09:34:28.896Z,1.08
2023-01-30T09:36:56.989Z,1.13
2023-01-30T09:39:26.031Z,1.19
2023-01-30T09:42:14.643Z,1.30
2023-01-30T09:45:02.437Z,1.33
2023-01-30T09:47:41.427Z,1.39
2023-01-30T09:50:24.904Z,1.90
2023-01-30T09:52:59.484Z,2.01
2023-01-30T09:55:31.069Z,1.92
2023-01-30T09:58:00.630Z,2.02
2023-01-30T10:00:35.407Z,1.93
2023-01-30T10:03:10.545Z,2.10
2023-01-30T10:05:43.978Z,2.28
2023-01-30T10:08:42.816Z,2.64
2023-01-30T10:11:22.636Z,2.72
2023-01-30T10:14:12.782Z,2.62
2023-01-30T10:16:53.916Z,2.57
2023-01-30T10:19:44.959Z,2.42
2023-01-30T10:22:23.229Z,2.71
2023-01-30T10:25:03.716Z,3.20
2023-01-30T10:27:34.804Z,3.36
2023-01-30T10:30:04.880Z,3.22
2023-01-30T10:32:36.921Z,3.58
2023-01-30T10:35:08.907Z,3.92
2023-01-30T10:37:46.148Z,4.07
2023-01-30T10:40:21.585Z,4.12
2023-01-30T10:42:56.268Z,3.91
2023-01-30T10:45:35.180Z,3.80
2023-01-30T10:48:28.707Z,3.58
2023-01-30T10:51:06.936Z,4.14
2023-01-30T10:53:40.994Z,4.29
2023-01-30T10:56:17.517Z,4.31
2023-01-30T10:58:53.181Z,4.59
2023-01-30T11:01:23.723Z,4.58
2023-01-30T11:03:57.441Z,4.71
2023-01-30T11:06:26.768Z,4.67
2023-01-30T11:08:56.134Z,4.84
2023-01-30T11:11:27.456Z,4.72
2023-01-30T11:14:04.581Z,5.60
2023-01-30T11:16:32.690Z,5.61
2023-01-30T11:19:22.411Z,5.66
2023-01-30T11:21:52.357Z,5.81
2023-01-30T11:24:21.857Z,4.89
2023-01-30T11:26:50.407Z,4.18
2023-01-30T11:29:27.022Z,3.83
2023-01-30T11:31:55.333Z,3.71
2023-01-30T11:34:25.481Z,3.62
2023-01-30T11:36:53.471Z,3.74
2023-01-30T11:39:24.192Z,4.24
2023-01-30T11:42:01.953Z,4.33
2023-01-30T11:44:33.963Z,4.49
2023-01-30T11:47:05.163Z,4.69
2023-01-30T11:49:46.654Z,4.73
2023-01-30T11:52:22.551Z,4.59
2023-01-30T11:54:51.053Z,4.64
2023-01-30T11:57:21.014Z,5.20
2023-01-30T11:59:56.499Z,5.13
2023-01-30T12:02:25.929Z,4.79
2023-01-30T12:04:56.762Z,4.14
2023-01-30T12:07:26.923Z,3.90
2023-01-30T12:09:55.960Z,3.70
2023-01-30T12:12:33.386Z,3.50
2023-01-30T12:15:14.660Z,3.38
2023-01-30T12:17:47.678Z,3.30
2023-01-30T12:20:22.129Z,3.15
2023-01-30T12:23:01.443Z,3.09
2023-01-30T12:25:36.123Z,3.01
2023-01-30T12:28:12.197Z,2.94
2023-01-30T12:30:47.613Z,2.91
2023-01-30T12:36:05.226Z,2.86
2023-01-30T12:38:47.184Z,2.91
2023-01-30T12:41:35.189Z,2.72
2023-01-30T12:44:17.137Z,2.62
2023-01-30T12:47:06.473Z,2.59
2023-01-30T12:49:47.758Z,2.62
2023-01-30T12:52:32.530Z,2.65
2023-01-30T12:55:10.966Z,2.64
2023-01-30T12:57:46.076Z,2.69
2023-01-30T13:00:28.474Z,2.73
2023-01-30T13:03:14.656Z,2.77
2023-01-30T13:05:46.391Z,2.79
2023-01-30T13:08:35.943Z,2.91
2023-01-30T13:11:12.262Z,2.91
2023-01-30T13:13:47.117Z,2.92
2023-01-30T13:16:24.950Z,2.98
2023-01-30T13:18:58.749Z,3.09
2023-01-30T13:21:32.751Z,3.13
2023-01-30T13:24:14.720Z,3.14
2023-01-30T13:26:44.810Z,3.09
2023-01-30T13:29:17.277Z,3.10
2023-01-30T13:31:53.507Z,3.21
2023-01-30T13:34:29.381Z,3.21
2023-01-30T13:37:04.149Z,3.26
2023-01-30T13:39:42.473Z,3.36
2023-01-30T13:42:19.103Z,3.47
2023-01-30T13:44:49.062Z,3.58
2023-01-30T13:47:33.060Z,3.57
2023-01-30T13:50:23.117Z,3.50
2023-01-30T13:53:00.066Z,3.52
2023-01-30T13:55:34.876Z,3.42
2023-01-30T13:58:12.353Z,3.43
2023-01-30T14:00:40.056Z,3.43
2023-01-30T14:03:30.362Z,3.44
2023-01-30T14:06:07.281Z,3.48
2023-01-30T14:08:41.434Z,3.50
2023-01-30T14:11:29.102Z,3.48
2023-01-30T14:14:01.476Z,3.45
2023-01-30T14:16:42.387Z,3.52
2023-01-30T14:19:59.497Z,3.50
2023-01-30T14:22:35.017Z,3.50
2023-01-30T14:25:21.180Z,3.38
2023-01-30T14:27:50.226Z,3.35
2023-01-30T14:30:38.987Z,3.32
2023-01-30T14:33:36.125Z,3.25
2023-01-30T14:36:35.892Z,3.20
2023-01-30T14:39:39.920Z,3.10
2023-01-30T14:42:21.480Z,3.02
2023-01-30T14:45:00.554Z,2.95
2023-01-30T14:47:35.132Z,2.92
2023-01-30T14:50:20.524Z,2.90
2023-01-30T14:52:50.266Z,2.79
2023-01-30T14:55:23.295Z,2.78
2023-01-30T14:57:57.154Z,2.79
2023-01-30T15:00:29.335Z,2.82
2023-01-30T15:03:01.392Z,2.80
2023-01-30T15:05:33.592Z,2.78
2023-01-30T15:08:08.101Z,2.77
2023-01-30T15:10:54.828Z,2.65
2023-01-30T15:13:50.040Z,2.55
2023-01-30T15:16:38.516Z,2.54
2023-01-30T15:19:24.146Z,2.56
2023-01-30T15:22:03.328Z,2.59
2023-01-30T15:24:49.925Z,2.57
2023-01-30T15:27:27.293Z,2.56
2023-01-30T15:30:17.203Z,2.54
2023-01-30T15:32:46.722Z,2.56
2023-01-30T15:35:25.436Z,2.51
2023-01-30T15:37:54.309Z,2.55
2023-01-30T15:40:24.936Z,2.56
2023-01-30T15:43:03.447Z,2.54
2023-01-30T15:45:40.066Z,2.53
2023-01-30T15:48:37.025Z,2.48
2023-01-30T15:51:05.466Z,2.48
2023-01-30T15:53:36.669Z,2.49
2023-01-30T15:56:08.628Z,2.49
2023-01-30T15:58:41.821Z,2.39
2023-01-30T16:01:11.120Z,2.36
2023-01-30T16:03:42.761Z,2.36
2023-01-30T16:06:25.352Z,2.31
2023-01-30T16:08:57.616Z,2.33
2023-01-30T16:11:36.702Z,2.27
2023-01-30T16:14:06.716Z,2.16
2023-01-30T16:16:41.075Z,2.11
2023-01-30T16:19:13.823Z,2.06
2023-01-30T16:21:41.829Z,2.04
2023-01-30T16:24:17.620Z,2.04
2023-01-30T16:26:48.758Z,2.04
2023-01-30T16:29:21.788Z,2.08
2023-01-30T16:31:51.311Z,2.02
2023-01-30T16:34:29.939Z,2.00
2023-01-30T16:37:00.345Z,1.96
2023-01-30T16:39:31.257Z,1.93
2023-01-30T16:42:00.702Z,1.93
2023-01-30T16:44:30.852Z,1.99
2023-01-30T16:47:01.603Z,1.93
2023-01-30T16:49:41.575Z,1.90
2023-01-30T16:52:18.441Z,1.89
2023-01-30T16:54:50.601Z,1.86
2023-01-30T16:57:36.033Z,1.81
2023-01-30T17:00:10.070Z,1.77
2023-01-30T17:02:42.099Z,1.79
2023-01-30T17:05:19.434Z,1.72
2023-01-30T17:07:48.023Z,1.77
2023-01-30T17:10:52.697Z,1.74
2023-01-30T17:13:32.596Z,1.65
2023-01-30T17:16:23.928Z,1.66
2023-01-30T17:18:52.984Z,1.58
2023-01-30T17:21:21.698Z,1.58
2023-01-30T17:23:52.129Z,1.55
2023-01-30T17:26:20.269Z,1.59
2023-01-30T17:28:48.011Z,1.67
2023-01-30T17:31:17.746Z,1.70
2023-01-30T17:33:46.980Z,1.79
2023-01-30T17:36:23.027Z,1.80
2023-01-30T17:38:51.799Z,1.83
2023-01-30T17:41:21.922Z,1.84
2023-01-30T17:43:49.895Z,1.81
2023-01-30T17:46:19.023Z,1.84
2023-01-30T17:48:48.399Z,1.89
2023-01-30T17:51:16.063Z,1.91
2023-01-30T17:53:44.342Z,1.91
2023-01-30T17:56:18.726Z,1.87
2023-01-30T17:58:46.406Z,1.79
2023-01-30T18:01:16.247Z,1.79
2023-01-30T18:03:47.913Z,1.80
2023-01-30T18:06:17.446Z,1.84
2023-01-30T18:08:45.222Z,1.82
2023-01-30T18:11:14.777Z,1.88
2023-01-30T18:13:43.551Z,1.83
2023-01-30T18:16:16.945Z,1.89
2023-01-30T18:18:44.739Z,1.87
2023-01-30T18:21:14.123Z,1.87
2023-01-30T18:23:42.049Z,1.90
2023-01-30T18:26:14.143Z,1.83
2023-01-30T18:28:44.163Z,1.75
2023-01-30T18:31:14.087Z,1.70
2023-01-30T18:33:46.219Z,1.68
2023-01-30T18:36:18.142Z,1.68
2023-01-30T18:38:47.013Z,1.71
2023-01-30T18:41:16.967Z,1.69
2023-01-30T18:43:45.935Z,1.70
2023-01-30T18:46:16.475Z,1.70
2023-01-30T18:48:45.704Z,1.75
2023-01-30T18:51:18.001Z,1.81
2023-01-30T18:53:48.104Z,1.78
2023-01-30T18:56:18.736Z,1.76
2023-01-30T18:58:49.822Z,1.69
2023-01-30T19:01:23.153Z,1.78
2023-01-30T19:03:51.609Z,1.81
2023-01-30T19:06:21.438Z,1.82
2023-01-30T19:08:51.008Z,1.81
2023-01-30T19:11:40.496Z,1.89
2023-01-30T19:14:10.345Z,1.92
2023-01-30T19:16:40.096Z,1.95
2023-01-30T19:19:08.946Z,1.96
2023-01-30T19:21:38.560Z,1.94
2023-01-30T19:24:07.873Z,1.91
2023-01-30T19:26:36.234Z,1.94
2023-01-30T19:29:03.965Z,1.94
2023-01-30T19:31:31.751Z,1.94
2023-01-30T19:34:01.229Z,1.99
2023-01-30T19:36:32.729Z,1.97
2023-01-30T19:39:03.586Z,2.02
2023-01-30T19:41:34.339Z,2.05
2023-01-30T19:44:04.339Z,2.02
2023-01-30T19:46:33.650Z,2.05
2023-01-30T19:49:03.308Z,2.08
2023-01-30T19:51:32.688Z,2.03
2023-01-30T19:54:05.403Z,1.98
2023-01-30T19:56:34.094Z,1.98
2023-01-30T19:59:02.717Z,1.92
2023-01-30T20:01:32.946Z,1.92
2023-01-30T20:04:02.411Z,1.77
2023-01-30T20:06:31.990Z,1.61
2023-01-30T20:09:03.748Z,1.54
2023-01-30T20:11:32.020Z,1.56
2023-01-30T20:14:03.898Z,1.56
2023-01-30T20:16:31.953Z,1.69
2023-01-30T20:19:01.319Z,1.75
2023-01-30T20:21:31.042Z,1.80
2023-01-30T20:24:00.008Z,1.93
2023-01-30T20:26:31.005Z,1.91
2023-01-30T20:28:59.767Z,1.93
2023-01-30T20:31:31.440Z,1.97
2023-01-30T20:34:02.133Z,1.99
2023-01-30T20:36:29.882Z,1.95
2023-01-30T20:39:01.779Z,1.98
2023-01-30T20:41:32.334Z,1.97
2023-01-30T20:44:00.731Z,2.00
2023-01-30T20:46:29.908Z,2.05
2023-01-30T20:49:01.205Z,2.01
2023-01-30T20:51:32.688Z,1.95
2023-01-30T20:54:04.079Z,2.02
2023-01-30T20:56:35.814Z,2.01
2023-01-30T20:59:05.062Z,1.99
2023-01-30T21:01:33.508Z,2.01
2023-01-30T21:04:06.358Z,2.05
2023-01-30T21:06:42.259Z,2.00
2023-01-30T21:09:15.144Z,1.96
2023-01-30T21:11:44.756Z,2.03
2023-01-30T21:14:12.637Z,2.01
2023-01-30T21:16:41.766Z,2.05
2023-01-30T21:19:14.399Z,2.01
2023-01-30T21:21:44.527Z,2.03
2023-01-30T21:24:14.584Z,2.02
2023-01-30T21:26:47.655Z,1.99
2023-01-30T21:29:16.903Z,2.00
2023-01-30T21:31:47.253Z,2.01
2023-01-30T21:34:16.969Z,2.07
2023-01-30T21:37:05.037Z,2.06
2023-01-30T21:39:50.275Z,2.03
2023-01-30T21:42:36.900Z,2.04
2023-01-30T21:45:06.719Z,2.02
2023-01-30T21:47:34.585Z,1.96
2023-01-30T21:50:02.475Z,1.95
2023-01-30T21:52:32.461Z,1.95
2023-01-30T21:55:00.300Z,1.95
2023-01-30T21:57:29.508Z,1.91
2023-01-30T21:59:57.252Z,1.92
2023-01-30T22:02:25.259Z,1.90
2023-01-30T22:04:52.977Z,1.89
2023-01-30T22:07:20.877Z,1.88
2023-01-30T22:09:49.245Z,1.86
2023-01-30T22:12:17.002Z,1.84
2023-01-30T22:14:46.269Z,1.87
2023-01-30T22:17:13.949Z,1.86
2023-01-30T22:19:41.675Z,1.88
2023-01-30T22:22:09.385Z,1.85
2023-01-30T22:24:37.367Z,1.80
2023-01-30T22:27:05.121Z,1.84
2023-01-30T22:29:35.078Z,1.83
2023-01-30T22:32:04.745Z,1.81
2023-01-30T22:34:34.858Z,1.79
2023-01-30T22:37:03.510Z,1.80
2023-01-30T22:39:31.212Z,1.79
2023-01-30T22:41:58.912Z,1.80
2023-01-30T22:44:26.733Z,1.82
2023-01-30T22:46:57.141Z,1.77
2023-01-30T22:49:26.245Z,1.78
2023-01-30T22:51:53.953Z,1.75
2023-01-30T22:54:25.055Z,1.81
2023-01-30T23:01:37.203Z,1.70
2023-01-30T23:04:07.759Z,1.75
2023-01-30T23:06:38.276Z,1.68
2023-01-30T23:09:07.522Z,1.81
2023-01-30T23:11:37.173Z,1.83
2023-01-30T23:14:09.910Z,1.86
2023-01-30T23:16:40.839Z,1.85
2023-01-30T23:19:09.114Z,1.90
2023-01-30T23:21:39.103Z,1.93
2023-01-30T23:24:09.470Z,1.95
2023-01-30T23:26:39.288Z,1.98
2023-01-30T23:29:09.177Z,2.00
2023-01-30T23:31:39.060Z,1.92
2023-01-30T23:34:08.135Z,1.92
2023-01-30T23:36:36.393Z,1.91
2023-01-30T23:39:05.395Z,1.93
2023-01-30T23:41:35.381Z,1.94
2023-01-30T23:44:03.659Z,1.99
2023-01-30T23:46:33.608Z,1.99
2023-01-30T23:49:04.134Z,1.98
2023-01-30T23:51:33.538Z,1.96
2023-01-30T23:54:01.615Z,1.95
2023-01-30T23:56:31.771Z,1.91
2023-01-30T23:58:59.570Z,1.94
